sensor_id;sensor_type;location;lat;lon;timestamp;pressure;altitude;pressure_sealevel;temperature;humidity
76940;BME280;65885;55.848;35.916;2023-03-23T00:00:18;98987.53;;;7.59;50.11
76940;BME280;65885;55.848;35.916;2023-03-23T00:02:45;98997.75;;;7.40;50.23
76940;BME280;65885;55.848;35.916;2023-03-23T00:05:12;98984.53;;;7.21;50.97
76940;BME280;65885;55.848;35.916;2023-03-23T00:07:40;98989.44;;;7.05;51.01
76940;BME280;65885;55.848;35.916;2023-03-23T00:10:13;98991.72;;;6.89;51.78
76940;BME280;65885;55.848;35.916;2023-03-23T00:12:40;98987.88;;;6.75;51.51
76940;BME280;65885;55.848;35.916;2023-03-23T00:15:09;98987.41;;;6.62;51.58
76940;BME280;65885;55.848;35.916;2023-03-23T00:17:39;98986.09;;;6.49;52.53
76940;BME280;65885;55.848;35.916;2023-03-23T00:20:07;98990.75;;;6.39;52.71
76940;BME280;65885;55.848;35.916;2023-03-23T00:22:37;98982.44;;;6.28;52.73
76940;BME280;65885;55.848;35.916;2023-03-23T00:25:05;98981.84;;;6.20;53.08
76940;BME280;65885;55.848;35.916;2023-03-23T00:27:35;98975.88;;;6.16;53.46
76940;BME280;65885;55.848;35.916;2023-03-23T00:30:03;98977.44;;;6.22;53.76
76940;BME280;65885;55.848;35.916;2023-03-23T00:32:31;98978.69;;;6.36;53.21
76940;BME280;65885;55.848;35.916;2023-03-23T00:35:02;98982.56;;;6.51;53.55
76940;BME280;65885;55.848;35.916;2023-03-23T00:37:30;98969.88;;;6.67;52.86
76940;BME280;65885;55.848;35.916;2023-03-23T00:39:58;98968.59;;;6.79;52.81
76940;BME280;65885;55.848;35.916;2023-03-23T00:42:26;98976.88;;;6.91;52.10
76940;BME280;65885;55.848;35.916;2023-03-23T00:44:55;98970.44;;;7.02;52.00
76940;BME280;65885;55.848;35.916;2023-03-23T00:47:26;98970.06;;;7.12;51.96
76940;BME280;65885;55.848;35.916;2023-03-23T00:49:53;98973.25;;;7.20;51.83
76940;BME280;65885;55.848;35.916;2023-03-23T00:52:22;98966.91;;;7.28;51.25
76940;BME280;65885;55.848;35.916;2023-03-23T00:54:50;98965.88;;;7.32;51.24
76940;BME280;65885;55.848;35.916;2023-03-23T00:57:17;98962.44;;;7.31;50.95
76940;BME280;65885;55.848;35.916;2023-03-23T00:59:45;98957.47;;;7.23;51.09
76940;BME280;65885;55.848;35.916;2023-03-23T01:02:14;98948.44;;;7.09;51.43
76940;BME280;65885;55.848;35.916;2023-03-23T01:04:42;98948.31;;;6.88;52.00
76940;BME280;65885;55.848;35.916;2023-03-23T01:07:10;98945.53;;;6.68;52.06
76940;BME280;65885;55.848;35.916;2023-03-23T01:09:39;98948.00;;;6.46;51.65
76940;BME280;65885;55.848;35.916;2023-03-23T01:12:10;98946.13;;;6.23;52.35
76940;BME280;65885;55.848;35.916;2023-03-23T01:14:38;98936.38;;;6.02;52.82
76940;BME280;65885;55.848;35.916;2023-03-23T01:17:05;98937.00;;;5.82;53.31
76940;BME280;65885;55.848;35.916;2023-03-23T01:19:34;98934.13;;;5.62;53.68
76940;BME280;65885;55.848;35.916;2023-03-23T01:22:01;98938.09;;;5.44;53.40
76940;BME280;65885;55.848;35.916;2023-03-23T01:24:28;98931.72;;;5.24;53.39
76940;BME280;65885;55.848;35.916;2023-03-23T01:26:59;98933.13;;;5.05;53.65
76940;BME280;65885;55.848;35.916;2023-03-23T01:29:32;98931.88;;;4.87;53.74
76940;BME280;65885;55.848;35.916;2023-03-23T01:31:59;98938.94;;;4.82;53.99
76940;BME280;65885;55.848;35.916;2023-03-23T01:34:26;98930.25;;;4.85;53.78
76940;BME280;65885;55.848;35.916;2023-03-23T01:36:55;98924.91;;;4.89;53.59
76940;BME280;65885;55.848;35.916;2023-03-23T01:39:23;98927.34;;;4.95;53.38
76940;BME280;65885;55.848;35.916;2023-03-23T01:41:50;98930.72;;;4.99;53.05
76940;BME280;65885;55.848;35.916;2023-03-23T01:47:22;98927.03;;;5.06;52.52
76940;BME280;65885;55.848;35.916;2023-03-23T01:49:52;98925.31;;;5.07;52.60
76940;BME280;65885;55.848;35.916;2023-03-23T01:52:23;98915.78;;;5.07;52.26
76940;BME280;65885;55.848;35.916;2023-03-23T01:54:54;98920.13;;;5.07;52.23
76940;BME280;65885;55.848;35.916;2023-03-23T01:57:25;98918.44;;;5.04;52.17
76940;BME280;65885;55.848;35.916;2023-03-23T01:59:57;98913.34;;;5.01;52.15
76940;BME280;65885;55.848;35.916;2023-03-23T02:02:41;98913.59;;;4.90;52.12
76940;BME280;65885;55.848;35.916;2023-03-23T02:05:12;98919.31;;;4.72;52.16
76940;BME280;65885;55.848;35.916;2023-03-23T02:07:41;98914.63;;;4.52;52.50
76940;BME280;65885;55.848;35.916;2023-03-23T02:10:10;98911.75;;;4.29;52.58
76940;BME280;65885;55.848;35.916;2023-03-23T02:12:38;98920.09;;;4.06;53.32
76940;BME280;65885;55.848;35.916;2023-03-23T02:15:06;98918.00;;;3.84;53.58
76940;BME280;65885;55.848;35.916;2023-03-23T02:17:40;98915.91;;;3.63;54.14
76940;BME280;65885;55.848;35.916;2023-03-23T02:20:33;98913.72;;;3.43;54.74
76940;BME280;65885;55.848;35.916;2023-03-23T02:26:19;98906.75;;;3.05;55.26
76940;BME280;65885;55.848;35.916;2023-03-23T02:29:17;98903.56;;;2.91;55.41
76940;BME280;65885;55.848;35.916;2023-03-23T02:32:01;98905.50;;;2.81;56.02
76940;BME280;65885;55.848;35.916;2023-03-23T02:34:38;98901.13;;;2.83;56.30
76940;BME280;65885;55.848;35.916;2023-03-23T02:37:10;98894.03;;;2.93;56.17
76940;BME280;65885;55.848;35.916;2023-03-23T02:39:43;98895.53;;;3.04;55.66
76940;BME280;65885;55.848;35.916;2023-03-23T02:42:13;98893.53;;;3.19;55.30
76940;BME280;65885;55.848;35.916;2023-03-23T02:44:44;98906.19;;;3.32;55.62
76940;BME280;65885;55.848;35.916;2023-03-23T02:47:15;98903.31;;;3.45;55.43
76940;BME280;65885;55.848;35.916;2023-03-23T02:49:54;98903.06;;;3.57;54.93
76940;BME280;65885;55.848;35.916;2023-03-23T02:52:27;98907.16;;;3.67;54.84
76940;BME280;65885;55.848;35.916;2023-03-23T02:55:00;98895.72;;;3.76;54.78
76940;BME280;65885;55.848;35.916;2023-03-23T02:57:29;98901.56;;;3.85;55.02
76940;BME280;65885;55.848;35.916;2023-03-23T02:59:57;98895.31;;;3.93;54.77
76940;BME280;65885;55.848;35.916;2023-03-23T03:02:26;98897.72;;;4.00;54.95
76940;BME280;65885;55.848;35.916;2023-03-23T03:05:03;98889.03;;;4.03;54.47
76940;BME280;65885;55.848;35.916;2023-03-23T03:07:52;98889.22;;;3.95;54.81
76940;BME280;65885;55.848;35.916;2023-03-23T03:10:26;98887.03;;;3.78;54.36
76940;BME280;65885;55.848;35.916;2023-03-23T03:13:02;98888.34;;;3.59;54.87
76940;BME280;65885;55.848;35.916;2023-03-23T03:15:35;98884.41;;;3.40;55.84
76940;BME280;65885;55.848;35.916;2023-03-23T03:18:08;98883.09;;;3.22;55.50
76940;BME280;65885;55.848;35.916;2023-03-23T03:20:43;98885.19;;;3.04;55.65
76940;BME280;65885;55.848;35.916;2023-03-23T03:23:13;98886.34;;;2.90;55.86
76940;BME280;65885;55.848;35.916;2023-03-23T03:25:43;98883.13;;;2.77;56.76
76940;BME280;65885;55.848;35.916;2023-03-23T03:28:16;98890.25;;;2.66;57.24
76940;BME280;65885;55.848;35.916;2023-03-23T03:30:49;98885.25;;;2.55;57.57
76940;BME280;65885;55.848;35.916;2023-03-23T03:33:19;98885.34;;;2.49;57.96
76940;BME280;65885;55.848;35.916;2023-03-23T03:35:53;98876.63;;;2.55;57.82
76940;BME280;65885;55.848;35.916;2023-03-23T03:38:22;98874.66;;;2.69;57.46
76940;BME280;65885;55.848;35.916;2023-03-23T03:40:50;98868.28;;;2.85;57.35
76940;BME280;65885;55.848;35.916;2023-03-23T03:43:17;98870.53;;;3.02;57.34
76940;BME280;65885;55.848;35.916;2023-03-23T03:45:45;98868.50;;;3.18;56.98
76940;BME280;65885;55.848;35.916;2023-03-23T03:48:13;98871.63;;;3.33;57.13
76940;BME280;65885;55.848;35.916;2023-03-23T03:50:40;98871.28;;;3.47;57.00
76940;BME280;65885;55.848;35.916;2023-03-23T03:53:10;98876.13;;;3.64;57.35
76940;BME280;65885;55.848;35.916;2023-03-23T03:55:38;98865.41;;;3.78;56.86
76940;BME280;65885;55.848;35.916;2023-03-23T03:58:14;98865.09;;;3.92;56.99
76940;BME280;65885;55.848;35.916;2023-03-23T04:00:41;98867.41;;;4.04;57.03
76940;BME280;65885;55.848;35.916;2023-03-23T04:03:13;98867.13;;;4.14;56.80
76940;BME280;65885;55.848;35.916;2023-03-23T04:05:41;98869.47;;;4.25;56.48
76940;BME280;65885;55.848;35.916;2023-03-23T04:08:11;98862.28;;;4.35;56.50
76940;BME280;65885;55.848;35.916;2023-03-23T04:10:39;98865.56;;;4.41;56.50
76940;BME280;65885;55.848;35.916;2023-03-23T04:13:07;98864.78;;;4.38;56.61
76940;BME280;65885;55.848;35.916;2023-03-23T04:15:35;98858.09;;;4.31;56.89
76940;BME280;65885;55.848;35.916;2023-03-23T04:18:04;98860.94;;;4.20;57.39
76940;BME280;65885;55.848;35.916;2023-03-23T04:20:32;98851.69;;;4.10;57.50
76940;BME280;65885;55.848;35.916;2023-03-23T04:23:00;98857.97;;;4.00;57.85
76940;BME280;65885;55.848;35.916;2023-03-23T04:25:29;98862.50;;;3.92;58.65
76940;BME280;65885;55.848;35.916;2023-03-23T04:27:58;98866.97;;;3.85;59.07
76940;BME280;65885;55.848;35.916;2023-03-23T04:30:28;98866.25;;;3.80;59.19
76940;BME280;65885;55.848;35.916;2023-03-23T04:32:57;98866.31;;;3.77;59.83
76940;BME280;65885;55.848;35.916;2023-03-23T04:35:28;98866.38;;;3.74;59.96
76940;BME280;65885;55.848;35.916;2023-03-23T04:37:56;98872.38;;;3.76;60.17
76940;BME280;65885;55.848;35.916;2023-03-23T04:40:23;98867.81;;;3.87;60.82
76940;BME280;65885;55.848;35.916;2023-03-23T04:42:53;98870.75;;;4.07;60.45
76940;BME280;65885;55.848;35.916;2023-03-23T04:45:23;98876.25;;;4.31;60.29
76940;BME280;65885;55.848;35.916;2023-03-23T04:47:51;98868.72;;;4.53;59.82
76940;BME280;65885;55.848;35.916;2023-03-23T04:50:24;98865.50;;;4.77;59.40
76940;BME280;65885;55.848;35.916;2023-03-23T04:52:56;98864.00;;;4.99;58.94
76940;BME280;65885;55.848;35.916;2023-03-23T04:55:25;98865.97;;;5.21;58.85
76940;BME280;65885;55.848;35.916;2023-03-23T04:57:54;98867.94;;;5.42;58.52
76940;BME280;65885;55.848;35.916;2023-03-23T05:00:22;98867.34;;;5.62;58.37
76940;BME280;65885;55.848;35.916;2023-03-23T05:02:49;98864.13;;;5.82;57.97
76940;BME280;65885;55.848;35.916;2023-03-23T05:05:18;98860.91;;;6.02;57.80
76940;BME280;65885;55.848;35.916;2023-03-23T05:07:47;98874.19;;;6.21;57.74
76940;BME280;65885;55.848;35.916;2023-03-23T05:10:15;98866.66;;;6.38;57.42
76940;BME280;65885;55.848;35.916;2023-03-23T05:12:43;98867.72;;;6.57;56.75
76940;BME280;65885;55.848;35.916;2023-03-23T05:15:15;98861.19;;;6.71;56.41
76940;BME280;65885;55.848;35.916;2023-03-23T05:17:43;98862.72;;;6.76;56.63
76940;BME280;65885;55.848;35.916;2023-03-23T05:20:12;98859.28;;;6.76;56.23
76940;BME280;65885;55.848;35.916;2023-03-23T05:22:40;98851.66;;;6.70;56.96
76940;BME280;65885;55.848;35.916;2023-03-23T05:25:10;98844.06;;;6.63;56.69
76940;BME280;65885;55.848;35.916;2023-03-23T05:27:38;98838.19;;;6.58;57.14
76940;BME280;65885;55.848;35.916;2023-03-23T05:30:09;98845.28;;;6.53;57.16
76940;BME280;65885;55.848;35.916;2023-03-23T05:32:38;98846.34;;;6.48;57.82
76940;BME280;65885;55.848;35.916;2023-03-23T05:35:06;98843.88;;;6.45;57.80
76940;BME280;65885;55.848;35.916;2023-03-23T05:37:34;98841.25;;;6.45;57.65
76940;BME280;65885;55.848;35.916;2023-03-23T05:40:01;98835.09;;;6.47;58.08
76940;BME280;65885;55.848;35.916;2023-03-23T05:42:44;98837.09;;;6.64;58.04
76940;BME280;65885;55.848;35.916;2023-03-23T05:48:54;98838.34;;;7.26;56.98
76940;BME280;65885;55.848;35.916;2023-03-23T05:51:21;98837.38;;;7.50;56.33
76940;BME280;65885;55.848;35.916;2023-03-23T05:53:48;98835.50;;;7.75;55.97
76940;BME280;65885;55.848;35.916;2023-03-23T05:56:16;98841.56;;;7.98;54.97
76940;BME280;65885;55.848;35.916;2023-03-23T05:58:43;98846.75;;;8.20;54.92
76940;BME280;65885;55.848;35.916;2023-03-23T06:01:11;98837.22;;;8.41;54.36
76940;BME280;65885;55.848;35.916;2023-03-23T06:03:39;98841.53;;;8.62;54.27
76940;BME280;65885;55.848;35.916;2023-03-23T06:06:10;98837.06;;;8.84;53.83
76940;BME280;65885;55.848;35.916;2023-03-23T06:08:38;98837.84;;;9.05;52.87
76940;BME280;65885;55.848;35.916;2023-03-23T06:11:05;98830.03;;;9.24;52.83
76940;BME280;65885;55.848;35.916;2023-03-23T06:13:33;98828.38;;;9.40;51.71
76940;BME280;65885;55.848;35.916;2023-03-23T06:16:00;98832.41;;;9.48;51.16
76940;BME280;65885;55.848;35.916;2023-03-23T06:18:29;98836.72;;;9.49;50.97
76940;BME280;65885;55.848;35.916;2023-03-23T06:20:59;98839.63;;;9.42;50.78
76940;BME280;65885;55.848;35.916;2023-03-23T06:23:29;98838.28;;;9.34;50.82
76940;BME280;65885;55.848;35.916;2023-03-23T06:25:59;98833.59;;;9.22;51.07
76940;BME280;65885;55.848;35.916;2023-03-23T06:28:27;98834.03;;;9.12;51.52
76940;BME280;65885;55.848;35.916;2023-03-23T06:30:54;98837.91;;;9.04;51.82
76940;BME280;65885;55.848;35.916;2023-03-23T06:33:21;98836.41;;;8.98;52.07
76940;BME280;65885;55.848;35.916;2023-03-23T06:35:49;98828.56;;;8.98;52.53
76940;BME280;65885;55.848;35.916;2023-03-23T06:38:18;98833.59;;;9.03;52.90
76940;BME280;65885;55.848;35.916;2023-03-23T06:40:48;98829.88;;;9.08;52.85
76940;BME280;65885;55.848;35.916;2023-03-23T06:43:16;98830.38;;;9.16;52.58
76940;BME280;65885;55.848;35.916;2023-03-23T06:45:43;98832.41;;;9.29;52.73
76940;BME280;65885;55.848;35.916;2023-03-23T06:48:11;98825.00;;;9.38;52.49
76940;BME280;65885;55.848;35.916;2023-03-23T06:50:38;98823.56;;;9.50;52.09
76940;BME280;65885;55.848;35.916;2023-03-23T06:53:05;98817.84;;;9.61;51.75
76940;BME280;65885;55.848;35.916;2023-03-23T06:55:33;98821.25;;;9.80;51.69
76940;BME280;65885;55.848;35.916;2023-03-23T06:58:02;98822.44;;;10.09;50.87
76940;BME280;65885;55.848;35.916;2023-03-23T07:00:43;98816.25;;;10.46;50.10
76940;BME280;65885;55.848;35.916;2023-03-23T07:03:11;98813.59;;;10.81;49.42
76940;BME280;65885;55.848;35.916;2023-03-23T07:05:39;98802.97;;;11.16;48.71
76940;BME280;65885;55.848;35.916;2023-03-23T07:08:07;98806.38;;;11.49;47.68
76940;BME280;65885;55.848;35.916;2023-03-23T07:10:34;98801.25;;;11.78;46.74
76940;BME280;65885;55.848;35.916;2023-03-23T07:13:04;98795.41;;;12.04;46.29
76940;BME280;65885;55.848;35.916;2023-03-23T07:15:31;98785.34;;;12.27;45.36
76940;BME280;65885;55.848;35.916;2023-03-23T07:17:59;98793.25;;;12.41;45.29
76940;BME280;65885;55.848;35.916;2023-03-23T07:20:26;98800.00;;;12.45;44.40
76940;BME280;65885;55.848;35.916;2023-03-23T07:22:54;98801.91;;;12.43;44.71
76940;BME280;65885;55.848;35.916;2023-03-23T07:25:21;98793.50;;;12.36;44.59
76940;BME280;65885;55.848;35.916;2023-03-23T07:27:49;98784.50;;;12.26;44.16
76940;BME280;65885;55.848;35.916;2023-03-23T07:30:18;98785.88;;;12.17;44.54
76940;BME280;65885;55.848;35.916;2023-03-23T07:32:46;98783.84;;;12.07;44.32
76940;BME280;65885;55.848;35.916;2023-03-23T07:35:13;98779.03;;;11.99;44.94
76940;BME280;65885;55.848;35.916;2023-03-23T07:37:41;98781.19;;;11.92;45.10
76940;BME280;65885;55.848;35.916;2023-03-23T07:40:10;98776.31;;;11.86;44.78
76940;BME280;65885;55.848;35.916;2023-03-23T07:42:41;98769.72;;;11.78;44.82
76940;BME280;65885;55.848;35.916;2023-03-23T07:45:10;98759.59;;;11.72;45.16
76940;BME280;65885;55.848;35.916;2023-03-23T07:47:40;98750.38;;;11.64;45.30
76940;BME280;65885;55.848;35.916;2023-03-23T07:50:08;98749.88;;;11.58;45.45
76940;BME280;65885;55.848;35.916;2023-03-23T07:52:37;98741.16;;;11.57;45.60
76940;BME280;65885;55.848;35.916;2023-03-23T07:55:07;98746.13;;;11.62;45.43
76940;BME280;65885;55.848;35.916;2023-03-23T07:57:37;98725.50;;;11.70;45.62
76940;BME280;65885;55.848;35.916;2023-03-23T08:00:06;98729.34;;;11.80;45.58
76940;BME280;65885;55.848;35.916;2023-03-23T08:02:42;98736.25;;;11.97;45.09
76940;BME280;65885;55.848;35.916;2023-03-23T08:05:10;98737.38;;;12.07;44.83
76940;BME280;65885;55.848;35.916;2023-03-23T08:07:39;98728.09;;;12.16;45.23
76940;BME280;65885;55.848;35.916;2023-03-23T08:10:08;98737.25;;;12.25;44.90
76940;BME280;65885;55.848;35.916;2023-03-23T08:12:39;98730.41;;;12.36;44.98
76940;BME280;65885;55.848;35.916;2023-03-23T08:15:09;98727.88;;;12.49;44.81
76940;BME280;65885;55.848;35.916;2023-03-23T08:17:39;98719.16;;;12.63;44.58
76940;BME280;65885;55.848;35.916;2023-03-23T08:20:09;98731.06;;;12.83;44.02
76940;BME280;65885;55.848;35.916;2023-03-23T08:22:39;98728.97;;;13.02;43.26
76940;BME280;65885;55.848;35.916;2023-03-23T08:25:10;98733.94;;;13.21;43.10
76940;BME280;65885;55.848;35.916;2023-03-23T08:27:38;98733.75;;;13.38;43.01
76940;BME280;65885;55.848;35.916;2023-03-23T08:30:10;98727.81;;;13.62;42.46
76940;BME280;65885;55.848;35.916;2023-03-23T08:32:38;98727.16;;;13.85;42.12
76940;BME280;65885;55.848;35.916;2023-03-23T08:35:07;98727.59;;;14.04;41.89
76940;BME280;65885;55.848;35.916;2023-03-23T08:37:36;98721.53;;;14.29;41.29
76940;BME280;65885;55.848;35.916;2023-03-23T08:40:05;98723.47;;;14.53;40.96
76940;BME280;65885;55.848;35.916;2023-03-23T08:42:35;98713.72;;;14.79;40.01
76940;BME280;65885;55.848;35.916;2023-03-23T08:45:04;98706.50;;;14.93;39.82
76940;BME280;65885;55.848;35.916;2023-03-23T08:47:33;98708.16;;;15.07;39.50
76940;BME280;65885;55.848;35.916;2023-03-23T08:50:00;98704.53;;;15.21;39.10
76940;BME280;65885;55.848;35.916;2023-03-23T08:52:29;98694.66;;;15.36;38.96
76940;BME280;65885;55.848;35.916;2023-03-23T08:54:58;98693.53;;;15.51;38.80
76940;BME280;65885;55.848;35.916;2023-03-23T08:57:25;98690.09;;;15.62;38.64
76940;BME280;65885;55.848;35.916;2023-03-23T08:59:55;98697.13;;;15.74;38.06
76940;BME280;65885;55.848;35.916;2023-03-23T09:02:25;98695.47;;;15.84;37.94
76940;BME280;65885;55.848;35.916;2023-03-23T09:04:56;98681.56;;;15.93;37.59
76940;BME280;65885;55.848;35.916;2023-03-23T09:07:24;98689.88;;;16.00;37.52
76940;BME280;65885;55.848;35.916;2023-03-23T09:09:51;98686.06;;;16.04;37.07
76940;BME280;65885;55.848;35.916;2023-03-23T09:12:20;98695.88;;;16.02;37.16
76940;BME280;65885;55.848;35.916;2023-03-23T09:14:49;98680.84;;;15.91;37.34
76940;BME280;65885;55.848;35.916;2023-03-23T09:17:16;98674.44;;;15.82;37.33
76940;BME280;65885;55.848;35.916;2023-03-23T09:19:44;98687.59;;;15.71;37.53
76940;BME280;65885;55.848;35.916;2023-03-23T09:22:11;98674.25;;;15.62;37.50
76940;BME280;65885;55.848;35.916;2023-03-23T09:24:41;98679.47;;;15.50;37.76
76940;BME280;65885;55.848;35.916;2023-03-23T09:27:08;98683.00;;;15.38;37.91
76940;BME280;65885;55.848;35.916;2023-03-23T09:29:37;98698.81;;;15.27;38.02
76940;BME280;65885;55.848;35.916;2023-03-23T09:32:05;98682.88;;;15.16;38.16
76940;BME280;65885;55.848;35.916;2023-03-23T09:34:33;98677.63;;;15.03;38.42
76940;BME280;65885;55.848;35.916;2023-03-23T09:37:05;98684.09;;;14.99;38.83
76940;BME280;65885;55.848;35.916;2023-03-23T09:39:32;98682.47;;;15.09;39.01
76940;BME280;65885;55.848;35.916;2023-03-23T09:42:12;98677.19;;;15.33;38.66
76940;BME280;65885;55.848;35.916;2023-03-23T09:44:54;98671.19;;;15.55;38.25
76940;BME280;65885;55.848;35.916;2023-03-23T09:47:32;98668.88;;;15.74;38.04
76940;BME280;65885;55.848;35.916;2023-03-23T09:50:08;98668.47;;;15.92;37.55
76940;BME280;65885;55.848;35.916;2023-03-23T09:52:39;98659.09;;;15.99;37.33
76940;BME280;65885;55.848;35.916;2023-03-23T09:55:13;98661.41;;;16.03;37.13
76940;BME280;65885;55.848;35.916;2023-03-23T09:57:49;98661.03;;;15.97;37.23
76940;BME280;65885;55.848;35.916;2023-03-23T10:00:24;98668.91;;;15.86;37.31
76940;BME280;65885;55.848;35.916;2023-03-23T10:03:00;98664.19;;;15.78;37.60
76940;BME280;65885;55.848;35.916;2023-03-23T10:05:32;98666.84;;;15.78;37.54
76940;BME280;65885;55.848;35.916;2023-03-23T10:08:05;98664.00;;;15.81;37.54
76940;BME280;65885;55.848;35.916;2023-03-23T10:10:42;98658.81;;;15.79;37.62
76940;BME280;65885;55.848;35.916;2023-03-23T10:13:14;98651.94;;;15.77;37.56
76940;BME280;65885;55.848;35.916;2023-03-23T10:15:46;98658.25;;;15.63;37.70
76940;BME280;65885;55.848;35.916;2023-03-23T10:18:15;98656.53;;;15.51;38.05
76940;BME280;65885;55.848;35.916;2023-03-23T10:20:48;98652.25;;;15.37;38.63
76940;BME280;65885;55.848;35.916;2023-03-23T10:23:54;98647.28;;;15.33;38.88
76940;BME280;65885;55.848;35.916;2023-03-23T10:26:39;98648.13;;;15.33;39.00
76940;BME280;65885;55.848;35.916;2023-03-23T10:29:15;98651.06;;;15.41;39.28
76940;BME280;65885;55.848;35.916;2023-03-23T10:31:48;98654.72;;;15.51;38.98
76940;BME280;65885;55.848;35.916;2023-03-23T10:34:20;98659.56;;;15.58;38.55
76940;BME280;65885;55.848;35.916;2023-03-23T10:36:59;98655.81;;;15.60;38.29
76940;BME280;65885;55.848;35.916;2023-03-23T10:39:31;98652.47;;;15.58;38.39
76940;BME280;65885;55.848;35.916;2023-03-23T10:42:01;98651.84;;;15.54;38.38
76940;BME280;65885;55.848;35.916;2023-03-23T10:44:33;98653.13;;;15.49;38.55
76940;BME280;65885;55.848;35.916;2023-03-23T10:47:04;98642.78;;;15.46;38.66
76940;BME280;65885;55.848;35.916;2023-03-23T10:49:37;98639.31;;;15.45;38.77
76940;BME280;65885;55.848;35.916;2023-03-23T10:52:23;98635.72;;;15.46;38.73
76940;BME280;65885;55.848;35.916;2023-03-23T10:54:57;98641.72;;;15.48;39.15
76940;BME280;65885;55.848;35.916;2023-03-23T10:57:27;98641.38;;;15.53;39.03
76940;BME280;65885;55.848;35.916;2023-03-23T11:00:02;98638.06;;;15.62;38.92
76940;BME280;65885;55.848;35.916;2023-03-23T11:02:37;98636.44;;;15.72;38.59
76940;BME280;65885;55.848;35.916;2023-03-23T11:05:15;98645.47;;;15.81;38.37
76940;BME280;65885;55.848;35.916;2023-03-23T11:07:49;98649.69;;;15.84;38.16
76940;BME280;65885;55.848;35.916;2023-03-23T11:10:22;98645.47;;;15.81;37.98
76940;BME280;65885;55.848;35.916;2023-03-23T11:12:50;98645.69;;;15.78;37.94
76940;BME280;65885;55.848;35.916;2023-03-23T11:15:26;98650.50;;;15.73;38.02
76940;BME280;65885;55.848;35.916;2023-03-23T11:18:00;98644.97;;;15.76;37.83
76940;BME280;65885;55.848;35.916;2023-03-23T11:20:29;98638.84;;;15.87;37.63
76940;BME280;65885;55.848;35.916;2023-03-23T11:23:01;98637.09;;;15.98;37.25
76940;BME280;65885;55.848;35.916;2023-03-23T11:25:54;98631.72;;;16.11;37.08
76940;BME280;65885;55.848;35.916;2023-03-23T11:28:26;98636.41;;;16.19;36.73
76940;BME280;65885;55.848;35.916;2023-03-23T11:30:57;98638.44;;;16.15;36.44
76940;BME280;65885;55.848;35.916;2023-03-23T11:33:29;98639.50;;;16.01;36.66
76940;BME280;65885;55.848;35.916;2023-03-23T11:35:57;98640.19;;;15.81;36.85
76940;BME280;65885;55.848;35.916;2023-03-23T11:38:25;98634.81;;;15.59;37.12
76940;BME280;65885;55.848;35.916;2023-03-23T11:40:54;98635.75;;;15.34;37.73
76940;BME280;65885;55.848;35.916;2023-03-23T11:43:22;98631.97;;;15.14;38.21
76940;BME280;65885;55.848;35.916;2023-03-23T11:46:01;98625.38;;;14.95;38.59
76940;BME280;65885;55.848;35.916;2023-03-23T11:48:35;98629.09;;;14.80;38.70
76940;BME280;65885;55.848;35.916;2023-03-23T11:51:08;98629.25;;;14.66;39.43
76940;BME280;65885;55.848;35.916;2023-03-23T11:53:45;98623.78;;;14.56;39.57
76940;BME280;65885;55.848;35.916;2023-03-23T11:56:20;98641.00;;;14.49;39.90
76940;BME280;65885;55.848;35.916;2023-03-23T11:58:50;98633.59;;;14.41;39.99
76940;BME280;65885;55.848;35.916;2023-03-23T12:01:37;98633.94;;;14.37;40.05
76940;BME280;65885;55.848;35.916;2023-03-23T12:04:31;98641.53;;;14.29;40.23
76940;BME280;65885;55.848;35.916;2023-03-23T12:07:20;98635.31;;;14.17;40.28
76940;BME280;65885;55.848;35.916;2023-03-23T12:09:59;98629.06;;;14.05;40.29
76940;BME280;65885;55.848;35.916;2023-03-23T12:12:36;98625.41;;;13.95;40.66
76940;BME280;65885;55.848;35.916;2023-03-23T12:15:14;98619.91;;;13.85;40.73
76940;BME280;65885;55.848;35.916;2023-03-23T12:17:49;98622.34;;;13.76;41.02
76940;BME280;65885;55.848;35.916;2023-03-23T12:20:29;98623.78;;;13.67;40.96
76940;BME280;65885;55.848;35.916;2023-03-23T12:23:22;98614.81;;;13.57;41.58
76940;BME280;65885;55.848;35.916;2023-03-23T12:26:19;98602.81;;;13.53;41.45
76940;BME280;65885;55.848;35.916;2023-03-23T12:29:18;98598.59;;;13.63;41.56
76940;BME280;65885;55.848;35.916;2023-03-23T12:32:07;98596.19;;;13.85;41.04
76940;BME280;65885;55.848;35.916;2023-03-23T12:34:41;98600.72;;;14.09;41.11
76940;BME280;65885;55.848;35.916;2023-03-23T12:37:29;98593.72;;;14.33;40.73
76940;BME280;65885;55.848;35.916;2023-03-23T12:40:17;98591.28;;;14.56;40.12
76940;BME280;65885;55.848;35.916;2023-03-23T12:42:54;98582.50;;;14.68;39.86
76940;BME280;65885;55.848;35.916;2023-03-23T12:45:43;98581.53;;;14.69;39.62
76940;BME280;65885;55.848;35.916;2023-03-23T12:48:15;98578.50;;;14.62;39.59
76940;BME280;65885;55.848;35.916;2023-03-23T12:51:00;98571.56;;;14.49;40.04
76940;BME280;65885;55.848;35.916;2023-03-23T12:53:32;98569.03;;;14.34;40.26
76940;BME280;65885;55.848;35.916;2023-03-23T12:56:11;98564.63;;;14.22;40.61
76940;BME280;65885;55.848;35.916;2023-03-23T12:58:45;98555.47;;;14.15;40.91
76940;BME280;65885;55.848;35.916;2023-03-23T13:01:17;98551.22;;;14.12;41.28
76940;BME280;65885;55.848;35.916;2023-03-23T13:03:51;98556.50;;;14.12;41.33
76940;BME280;65885;55.848;35.916;2023-03-23T13:06:26;98551.66;;;14.19;41.22
76940;BME280;65885;55.848;35.916;2023-03-23T13:09:01;98551.63;;;14.32;41.54
76940;BME280;65885;55.848;35.916;2023-03-23T13:11:33;98543.25;;;14.51;41.21
76940;BME280;65885;55.848;35.916;2023-03-23T13:14:10;98547.94;;;14.71;40.91
76940;BME280;65885;55.848;35.916;2023-03-23T13:16:46;98527.38;;;14.87;40.03
76940;BME280;65885;55.848;35.916;2023-03-23T13:19:27;98528.19;;;15.01;39.85
76940;BME280;65885;55.848;35.916;2023-03-23T13:22:02;98535.91;;;15.15;39.33
76940;BME280;65885;55.848;35.916;2023-03-23T13:24:38;98530.06;;;15.22;38.97
76940;BME280;65885;55.848;35.916;2023-03-23T13:27:08;98534.38;;;15.23;38.99